sensor_id;sensor_type;location;lat;lon;timestamp;P1;durP1;ratioP1;P2;durP2;ratioP2
54745;SDS011;40640;48.130;11.356;2023-03-19T00:03:29;11.98;;;5.00;;
54745;SDS011;40640;48.130;11.356;2023-03-19T00:07:32;7.47;;;4.82;;
54745;SDS011;40640;48.130;11.356;2023-03-19T00:11:37;8.55;;;4.80;;
54745;SDS011;40640;48.130;11.356;2023-03-19T00:15:40;9.57;;;4.47;;
54745;SDS011;40640;48.130;11.356;2023-03-19T00:19:42;9.85;;;4.88;;
54745;SDS011;40640;48.130;11.356;2023-03-19T00:23:45;12.85;;;4.60;;
54745;SDS011;40640;48.130;11.356;2023-03-19T00:27:50;8.52;;;4.28;;
54745;SDS011;40640;48.130;11.356;2023-03-19T00:31:53;9.43;;;4.30;;
54745;SDS011;40640;48.130;11.356;2023-03-19T00:35:55;8.48;;;4.40;;
54745;SDS011;40640;48.130;11.356;2023-03-19T00:39:59;13.23;;;5.03;;
54745;SDS011;40640;48.130;11.356;2023-03-19T00:44:03;9.90;;;4.55;;
54745;SDS011;40640;48.130;11.356;2023-03-19T00:48:06;12.77;;;4.70;;
54745;SDS011;40640;48.130;11.356;2023-03-19T00:52:09;10.07;;;4.35;;
54745;SDS011;40640;48.130;11.356;2023-03-19T00:56:14;10.40;;;4.05;;
54745;SDS011;40640;48.130;11.356;2023-03-19T01:00:21;10.55;;;4.55;;
54745;SDS011;40640;48.130;11.356;2023-03-19T01:04:24;8.77;;;4.05;;
54745;SDS011;40640;48.130;11.356;2023-03-19T01:08:27;11.35;;;4.22;;
54745;SDS011;40640;48.130;11.356;2023-03-19T01:12:31;6.13;;;4.13;;
54745;SDS011;40640;48.130;11.356;2023-03-19T01:16:35;11.00;;;4.30;;
54745;SDS011;40640;48.130;11.356;2023-03-19T01:20:39;9.13;;;4.82;;
54745;SDS011;40640;48.130;11.356;2023-03-19T01:24:43;13.68;;;4.32;;
54745;SDS011;40640;48.130;11.356;2023-03-19T01:28:46;12.98;;;5.95;;
54745;SDS011;40640;48.130;11.356;2023-03-19T01:32:52;9.43;;;4.00;;
54745;SDS011;40640;48.130;11.356;2023-03-19T01:37:11;14.13;;;4.50;;
54745;SDS011;40640;48.130;11.356;2023-03-19T01:41:15;8.77;;;4.22;;
54745;SDS011;40640;48.130;11.356;2023-03-19T01:45:29;10.60;;;4.28;;
54745;SDS011;40640;48.130;11.356;2023-03-19T01:49:56;16.05;;;4.35;;
54745;SDS011;40640;48.130;11.356;2023-03-19T01:54:01;12.57;;;4.43;;
54745;SDS011;40640;48.130;11.356;2023-03-19T01:58:27;10.07;;;4.72;;
54745;SDS011;40640;48.130;11.356;2023-03-19T02:02:41;11.95;;;5.53;;
54745;SDS011;40640;48.130;11.356;2023-03-19T02:06:53;11.85;;;4.93;;
54745;SDS011;40640;48.130;11.356;2023-03-19T02:10:57;16.30;;;4.00;;
54745;SDS011;40640;48.130;11.356;2023-03-19T02:15:01;7.70;;;4.32;;
54745;SDS011;40640;48.130;11.356;2023-03-19T02:19:06;14.02;;;4.82;;
54745;SDS011;40640;48.130;11.356;2023-03-19T02:23:16;7.85;;;4.70;;
54745;SDS011;40640;48.130;11.356;2023-03-19T02:27:33;9.55;;;4.80;;
54745;SDS011;40640;48.130;11.356;2023-03-19T02:31:36;12.63;;;4.60;;
54745;SDS011;40640;48.130;11.356;2023-03-19T02:35:39;8.30;;;4.75;;
54745;SDS011;40640;48.130;11.356;2023-03-19T02:39:50;10.27;;;4.75;;
54745;SDS011;40640;48.130;11.356;2023-03-19T02:44:01;10.95;;;4.93;;
54745;SDS011;40640;48.130;11.356;2023-03-19T02:48:06;11.77;;;4.63;;
54745;SDS011;40640;48.130;11.356;2023-03-19T02:52:09;10.20;;;4.57;;
54745;SDS011;40640;48.130;11.356;2023-03-19T02:56:12;12.10;;;5.10;;
54745;SDS011;40640;48.130;11.356;2023-03-19T03:00:17;8.68;;;4.60;;
54745;SDS011;40640;48.130;11.356;2023-03-19T03:04:21;14.57;;;5.30;;
54745;SDS011;40640;48.130;11.356;2023-03-19T03:08:24;12.35;;;4.80;;
54745;SDS011;40640;48.130;11.356;2023-03-19T03:12:28;10.57;;;4.80;;
54745;SDS011;40640;48.130;11.356;2023-03-19T03:16:33;10.73;;;4.63;;
54745;SDS011;40640;48.130;11.356;2023-03-19T03:20:36;11.27;;;5.05;;
54745;SDS011;40640;48.130;11.356;2023-03-19T03:24:39;9.93;;;4.70;;
54745;SDS011;40640;48.130;11.356;2023-03-19T03:28:42;8.70;;;5.13;;
54745;SDS011;40640;48.130;11.356;2023-03-19T03:32:46;10.20;;;4.80;;
54745;SDS011;40640;48.130;11.356;2023-03-19T03:36:49;14.02;;;4.65;;
54745;SDS011;40640;48.130;11.356;2023-03-19T03:40:52;8.20;;;4.82;;
54745;SDS011;40640;48.130;11.356;2023-03-19T03:44:59;9.25;;;4.68;;
54745;SDS011;40640;48.130;11.356;2023-03-19T03:49:03;15.93;;;4.93;;
54745;SDS011;40640;48.130;11.356;2023-03-19T03:53:06;8.52;;;4.82;;
54745;SDS011;40640;48.130;11.356;2023-03-19T03:57:09;11.70;;;5.50;;
54745;SDS011;40640;48.130;11.356;2023-03-19T04:01:13;9.88;;;5.40;;
54745;SDS011;40640;48.130;11.356;2023-03-19T04:05:22;10.98;;;5.45;;
54745;SDS011;40640;48.130;11.356;2023-03-19T04:09:25;10.95;;;4.95;;
54745;SDS011;40640;48.130;11.356;2023-03-19T04:13:28;10.10;;;5.65;;
54745;SDS011;40640;48.130;11.356;2023-03-19T04:17:37;15.38;;;6.22;;
54745;SDS011;40640;48.130;11.356;2023-03-19T04:21:44;11.52;;;5.35;;
54745;SDS011;40640;48.130;11.356;2023-03-19T04:25:47;11.20;;;5.53;;
54745;SDS011;40640;48.130;11.356;2023-03-19T04:29:51;17.02;;;5.93;;
54745;SDS011;40640;48.130;11.356;2023-03-19T04:33:54;14.00;;;6.00;;
54745;SDS011;40640;48.130;11.356;2023-03-19T04:37:59;14.35;;;5.80;;
54745;SDS011;40640;48.130;11.356;2023-03-19T04:42:02;17.08;;;5.93;;
54745;SDS011;40640;48.130;11.356;2023-03-19T04:46:09;15.95;;;6.63;;
54745;SDS011;40640;48.130;11.356;2023-03-19T04:50:13;12.02;;;5.85;;
54745;SDS011;40640;48.130;11.356;2023-03-19T04:54:19;12.85;;;5.45;;
54745;SDS011;40640;48.130;11.356;2023-03-19T04:58:21;9.23;;;5.22;;
54745;SDS011;40640;48.130;11.356;2023-03-19T05:02:31;11.30;;;5.40;;
54745;SDS011;40640;48.130;11.356;2023-03-19T05:06:35;10.82;;;5.53;;
54745;SDS011;40640;48.130;11.356;2023-03-19T05:10:41;12.10;;;5.38;;
54745;SDS011;40640;48.130;11.356;2023-03-19T05:14:44;9.07;;;5.07;;
54745;SDS011;40640;48.130;11.356;2023-03-19T05:18:52;12.68;;;5.68;;
54745;SDS011;40640;48.130;11.356;2023-03-19T05:22:55;9.95;;;6.13;;
54745;SDS011;40640;48.130;11.356;2023-03-19T05:27:11;20.50;;;6.65;;
54745;SDS011;40640;48.130;11.356;2023-03-19T05:31:14;13.18;;;6.80;;
54745;SDS011;40640;48.130;11.356;2023-03-19T05:35:22;12.05;;;6.68;;
54745;SDS011;40640;48.130;11.356;2023-03-19T05:39:26;14.65;;;7.47;;
54745;SDS011;40640;48.130;11.356;2023-03-19T05:43:35;13.13;;;7.53;;
54745;SDS011;40640;48.130;11.356;2023-03-19T05:47:45;11.50;;;6.85;;
54745;SDS011;40640;48.130;11.356;2023-03-19T05:51:49;13.13;;;6.97;;
54745;SDS011;40640;48.130;11.356;2023-03-19T05:55:52;11.57;;;6.53;;
54745;SDS011;40640;48.130;11.356;2023-03-19T05:59:57;16.85;;;7.38;;
54745;SDS011;40640;48.130;11.356;2023-03-19T06:04:06;11.18;;;6.72;;
54745;SDS011;40640;48.130;11.356;2023-03-19T06:08:09;14.50;;;6.85;;
54745;SDS011;40640;48.130;11.356;2023-03-19T06:12:28;13.25;;;8.32;;
54745;SDS011;40640;48.130;11.356;2023-03-19T06:16:38;17.13;;;8.63;;
54745;SDS011;40640;48.130;11.356;2023-03-19T06:20:42;13.05;;;7.55;;
54745;SDS011;40640;48.130;11.356;2023-03-19T06:24:46;17.38;;;9.05;;
54745;SDS011;40640;48.130;11.356;2023-03-19T06:28:57;20.98;;;6.68;;
54745;SDS011;40640;48.130;11.356;2023-03-19T06:33:02;9.48;;;6.10;;
54745;SDS011;40640;48.130;11.356;2023-03-19T06:37:06;15.82;;;6.80;;
54745;SDS011;40640;48.130;11.356;2023-03-19T06:41:09;9.90;;;5.95;;
54745;SDS011;40640;48.130;11.356;2023-03-19T06:45:12;12.63;;;6.20;;
54745;SDS011;40640;48.130;11.356;2023-03-19T06:49:18;11.55;;;6.20;;
54745;SDS011;40640;48.130;11.356;2023-03-19T06:53:21;10.80;;;5.90;;
54745;SDS011;40640;48.130;11.356;2023-03-19T06:57:23;10.18;;;4.85;;
54745;SDS011;40640;48.130;11.356;2023-03-19T07:01:27;9.27;;;5.18;;
54745;SDS011;40640;48.130;11.356;2023-03-19T07:05:32;12.23;;;5.20;;
54745;SDS011;40640;48.130;11.356;2023-03-19T07:09:34;7.00;;;4.32;;
54745;SDS011;40640;48.130;11.356;2023-03-19T07:13:37;7.28;;;4.63;;
54745;SDS011;40640;48.130;11.356;2023-03-19T07:17:40;12.55;;;5.18;;
54745;SDS011;40640;48.130;11.356;2023-03-19T07:21:46;9.15;;;3.90;;
54745;SDS011;40640;48.130;11.356;2023-03-19T07:25:49;9.52;;;4.20;;
54745;SDS011;40640;48.130;11.356;2023-03-19T07:29:52;8.75;;;4.10;;
54745;SDS011;40640;48.130;11.356;2023-03-19T07:33:55;7.68;;;3.85;;
54745;SDS011;40640;48.130;11.356;2023-03-19T07:38:00;5.25;;;3.78;;
54745;SDS011;40640;48.130;11.356;2023-03-19T07:42:03;7.88;;;4.22;;
54745;SDS011;40640;48.130;11.356;2023-03-19T07:46:06;7.72;;;3.75;;
54745;SDS011;40640;48.130;11.356;2023-03-19T07:50:09;5.82;;;3.40;;
54745;SDS011;40640;48.130;11.356;2023-03-19T07:54:14;7.18;;;3.85;;
54745;SDS011;40640;48.130;11.356;2023-03-19T07:58:16;7.72;;;5.30;;
54745;SDS011;40640;48.130;11.356;2023-03-19T08:02:19;13.93;;;5.68;;
54745;SDS011;40640;48.130;11.356;2023-03-19T08:06:24;6.78;;;3.97;;
54745;SDS011;40640;48.130;11.356;2023-03-19T08:10:28;8.38;;;4.75;;
54745;SDS011;40640;48.130;11.356;2023-03-19T08:14:31;7.90;;;5.70;;
54745;SDS011;40640;48.130;11.356;2023-03-19T08:18:34;6.82;;;4.55;;
54745;SDS011;40640;48.130;11.356;2023-03-19T08:22:37;8.57;;;4.20;;
54745;SDS011;40640;48.130;11.356;2023-03-19T08:26:43;7.57;;;4.05;;
54745;SDS011;40640;48.130;11.356;2023-03-19T08:30:46;7.93;;;4.28;;
54745;SDS011;40640;48.130;11.356;2023-03-19T08:34:49;7.85;;;3.90;;
54745;SDS011;40640;48.130;11.356;2023-03-19T08:38:52;5.82;;;3.65;;
54745;SDS011;40640;48.130;11.356;2023-03-19T08:42:56;4.80;;;3.35;;
54745;SDS011;40640;48.130;11.356;2023-03-19T08:46:59;7.60;;;3.75;;
54745;SDS011;40640;48.130;11.356;2023-03-19T08:51:02;6.15;;;3.70;;
54745;SDS011;40640;48.130;11.356;2023-03-19T08:55:05;7.53;;;4.07;;
54745;SDS011;40640;48.130;11.356;2023-03-19T08:59:10;7.10;;;4.60;;
54745;SDS011;40640;48.130;11.356;2023-03-19T09:03:14;11.27;;;5.22;;
54745;SDS011;40640;48.130;11.356;2023-03-19T09:07:18;5.85;;;4.00;;
54745;SDS011;40640;48.130;11.356;2023-03-19T09:11:21;5.05;;;3.50;;
54745;SDS011;40640;48.130;11.356;2023-03-19T09:15:25;8.20;;;3.65;;
54745;SDS011;40640;48.130;11.356;2023-03-19T09:19:28;10.55;;;3.90;;
54745;SDS011;40640;48.130;11.356;2023-03-19T09:23:31;8.30;;;3.28;;
54745;SDS011;40640;48.130;11.356;2023-03-19T09:27:34;6.15;;;3.80;;
54745;SDS011;40640;48.130;11.356;2023-03-19T09:31:38;6.57;;;3.92;;
54745;SDS011;40640;48.130;11.356;2023-03-19T09:35:42;6.32;;;3.75;;
54745;SDS011;40640;48.130;11.356;2023-03-19T09:39:44;6.70;;;4.00;;
54745;SDS011;40640;48.130;11.356;2023-03-19T09:43:55;6.63;;;4.07;;
54745;SDS011;40640;48.130;11.356;2023-03-19T09:48:03;12.55;;;5.60;;
54745;SDS011;40640;48.130;11.356;2023-03-19T09:52:12;8.70;;;5.03;;
54745;SDS011;40640;48.130;11.356;2023-03-19T09:56:25;13.75;;;7.00;;
54745;SDS011;40640;48.130;11.356;2023-03-19T10:00:29;8.73;;;5.32;;
54745;SDS011;40640;48.130;11.356;2023-03-19T10:04:38;6.82;;;4.25;;
54745;SDS011;40640;48.130;11.356;2023-03-19T10:09:03;7.80;;;3.75;;
54745;SDS011;40640;48.130;11.356;2023-03-19T10:13:23;7.72;;;4.30;;
54745;SDS011;40640;48.130;11.356;2023-03-19T10:17:36;6.23;;;4.07;;
54745;SDS011;40640;48.130;11.356;2023-03-19T10:21:44;9.32;;;4.05;;
54745;SDS011;40640;48.130;11.356;2023-03-19T10:25:53;6.15;;;4.00;;
54745;SDS011;40640;48.130;11.356;2023-03-19T10:29:58;7.07;;;4.13;;
54745;SDS011;40640;48.130;11.356;2023-03-19T10:34:04;7.68;;;4.13;;
54745;SDS011;40640;48.130;11.356;2023-03-19T10:38:20;14.57;;;5.15;;
54745;SDS011;40640;48.130;11.356;2023-03-19T10:42:34;8.88;;;4.03;;
54745;SDS011;40640;48.130;11.356;2023-03-19T10:46:43;6.70;;;3.63;;
54745;SDS011;40640;48.130;11.356;2023-03-19T10:50:47;6.28;;;3.78;;
54745;SDS011;40640;48.130;11.356;2023-03-19T10:54:55;6.13;;;4.10;;
54745;SDS011;40640;48.130;11.356;2023-03-19T10:59:04;7.32;;;3.70;;
54745;SDS011;40640;48.130;11.356;2023-03-19T11:03:09;9.10;;;3.42;;
54745;SDS011;40640;48.130;11.356;2023-03-19T11:07:32;6.60;;;3.28;;
54745;SDS011;40640;48.130;11.356;2023-03-19T11:11:42;6.80;;;3.67;;
54745;SDS011;40640;48.130;11.356;2023-03-19T11:15:46;7.15;;;3.90;;
54745;SDS011;40640;48.130;11.356;2023-03-19T11:19:50;5.43;;;3.50;;
54745;SDS011;40640;48.130;11.356;2023-03-19T11:23:58;6.40;;;3.38;;
54745;SDS011;40640;48.130;11.356;2023-03-19T11:28:06;6.53;;;3.55;;
54745;SDS011;40640;48.130;11.356;2023-03-19T11:32:14;4.95;;;3.25;;
54745;SDS011;40640;48.130;11.356;2023-03-19T11:40:33;7.00;;;4.03;;
54745;SDS011;40640;48.130;11.356;2023-03-19T11:44:47;6.43;;;3.40;;
54745;SDS011;40640;48.130;11.356;2023-03-19T11:49:08;7.93;;;3.90;;
54745;SDS011;40640;48.130;11.356;2023-03-19T11:53:41;6.13;;;3.22;;
54745;SDS011;40640;48.130;11.356;2023-03-19T11:57:57;9.50;;;3.33;;
54745;SDS011;40640;48.130;11.356;2023-03-19T12:06:58;6.35;;;3.08;;
54745;SDS011;40640;48.130;11.356;2023-03-19T12:11:12;6.68;;;3.42;;
54745;SDS011;40640;48.130;11.356;2023-03-19T12:15:23;6.43;;;2.92;;
54745;SDS011;40640;48.130;11.356;2023-03-19T12:24:11;7.13;;;3.30;;
54745;SDS011;40640;48.130;11.356;2023-03-19T12:28:24;7.03;;;3.00;;
54745;SDS011;40640;48.130;11.356;2023-03-19T12:32:36;5.82;;;3.40;;
54745;SDS011;40640;48.130;11.356;2023-03-19T12:37:03;5.95;;;3.15;;
54745;SDS011;40640;48.130;11.356;2023-03-19T12:41:16;7.55;;;3.90;;
54745;SDS011;40640;48.130;11.356;2023-03-19T12:45:23;5.00;;;3.25;;
54745;SDS011;40640;48.130;11.356;2023-03-19T12:49:32;4.90;;;3.40;;
54745;SDS011;40640;48.130;11.356;2023-03-19T12:53:42;5.55;;;3.70;;
54745;SDS011;40640;48.130;11.356;2023-03-19T12:57:49;4.85;;;3.10;;
54745;SDS011;40640;48.130;11.356;2023-03-19T13:01:56;6.20;;;3.13;;
54745;SDS011;40640;48.130;11.356;2023-03-19T13:06:03;6.25;;;3.45;;
54745;SDS011;40640;48.130;11.356;2023-03-19T13:10:12;7.20;;;3.50;;
54745;SDS011;40640;48.130;11.356;2023-03-19T13:14:21;12.30;;;3.45;;
54745;SDS011;40640;48.130;11.356;2023-03-19T13:18:30;8.18;;;3.35;;
54745;SDS011;40640;48.130;11.356;2023-03-19T13:22:40;8.32;;;3.80;;
54745;SDS011;40640;48.130;11.356;2023-03-19T13:26:50;7.03;;;3.35;;
54745;SDS011;40640;48.130;11.356;2023-03-19T13:30:58;7.65;;;3.80;;
54745;SDS011;40640;48.130;11.356;2023-03-19T13:35:15;10.30;;;3.40;;
54745;SDS011;40640;48.130;11.356;2023-03-19T13:39:29;6.05;;;3.80;;
54745;SDS011;40640;48.130;11.356;2023-03-19T13:47:56;5.90;;;3.25;;
54745;SDS011;40640;48.130;11.356;2023-03-19T13:56:55;9.15;;;3.58;;
54745;SDS011;40640;48.130;11.356;2023-03-19T14:01:12;4.88;;;3.03;;
54745;SDS011;40640;48.130;11.356;2023-03-19T14:05:41;4.93;;;3.05;;
54745;SDS011;40640;48.130;11.356;2023-03-19T14:09:45;5.55;;;2.83;;
54745;SDS011;40640;48.130;11.356;2023-03-19T14:13:50;4.43;;;3.28;;
54745;SDS011;40640;48.130;11.356;2023-03-19T14:17:56;6.68;;;3.42;;
54745;SDS011;40640;48.130;11.356;2023-03-19T14:22:07;7.32;;;3.10;;
54745;SDS011;40640;48.130;11.356;2023-03-19T14:26:15;5.90;;;3.30;;
54745;SDS011;40640;48.130;11.356;2023-03-19T14:30:23;10.15;;;3.65;;
54745;SDS011;40640;48.130;11.356;2023-03-19T14:34:33;11.50;;;3.42;;
54745;SDS011;40640;48.130;11.356;2023-03-19T14:38:42;6.38;;;3.47;;
54745;SDS011;40640;48.130;11.356;2023-03-19T14:42:57;6.28;;;3.70;;
54745;SDS011;40640;48.130;11.356;2023-03-19T14:47:14;5.88;;;3.28;;
54745;SDS011;40640;48.130;11.356;2023-03-19T14:55:54;8.25;;;3.13;;
54745;SDS011;40640;48.130;11.356;2023-03-19T14:59:57;5.72;;;3.08;;
54745;SDS011;40640;48.130;11.356;2023-03-19T15:04:00;7.75;;;3.38;;
54745;SDS011;40640;48.130;11.356;2023-03-19T15:08:10;4.00;;;2.63;;
54745;SDS011;40640;48.130;11.356;2023-03-19T15:16:30;5.60;;;2.88;;
54745;SDS011;40640;48.130;11.356;2023-03-19T15:20:40;6.15;;;3.30;;
54745;SDS011;40640;48.130;11.356;2023-03-19T15:24:46;8.65;;;3.58;;
54745;SDS011;40640;48.130;11.356;2023-03-19T15:28:50;9.23;;;4.18;;
54745;SDS011;40640;48.130;11.356;2023-03-19T15:32:55;7.90;;;3.58;;
54745;SDS011;40640;48.130;11.356;2023-03-19T15:37:12;6.43;;;3.65;;
54745;SDS011;40640;48.130;11.356;2023-03-19T15:41:18;4.53;;;3.10;;
54745;SDS011;40640;48.130;11.356;2023-03-19T15:45:21;5.32;;;3.03;;
54745;SDS011;40640;48.130;11.356;2023-03-19T15:49:27;6.97;;;2.72;;
54745;SDS011;40640;48.130;11.356;2023-03-19T15:53:32;4.88;;;2.78;;
54745;SDS011;40640;48.130;11.356;2023-03-19T15:57:38;9.70;;;3.30;;
54745;SDS011;40640;48.130;11.356;2023-03-19T16:01:42;7.10;;;3.43;;
54745;SDS011;40640;48.130;11.356;2023-03-19T16:05:49;4.88;;;3.15;;
54745;SDS011;40640;48.130;11.356;2023-03-19T16:09:52;8.10;;;3.35;;
54745;SDS011;40640;48.130;11.356;2023-03-19T16:13:57;7.65;;;3.30;;
54745;SDS011;40640;48.130;11.356;2023-03-19T16:18:08;6.68;;;4.00;;
54745;SDS011;40640;48.130;11.356;2023-03-19T16:22:23;11.68;;;4.25;;
54745;SDS011;40640;48.130;11.356;2023-03-19T16:30:40;7.57;;;4.00;;
54745;SDS011;40640;48.130;11.356;2023-03-19T16:34:48;8.65;;;3.38;;
54745;SDS011;40640;48.130;11.356;2023-03-19T16:38:54;8.35;;;4.25;;
54745;SDS011;40640;48.130;11.356;2023-03-19T16:43:05;6.35;;;3.90;;
54745;SDS011;40640;48.130;11.356;2023-03-19T16:47:10;10.25;;;4.30;;
54745;SDS011;40640;48.130;11.356;2023-03-19T16:51:14;7.03;;;4.25;;
54745;SDS011;40640;48.130;11.356;2023-03-19T16:55:19;7.07;;;4.00;;
54745;SDS011;40640;48.130;11.356;2023-03-19T16:59:25;10.73;;;4.00;;
54745;SDS011;40640;48.130;11.356;2023-03-19T17:03:31;9.80;;;4.07;;
54745;SDS011;40640;48.130;11.356;2023-03-19T17:07:34;11.82;;;4.63;;
54745;SDS011;40640;48.130;11.356;2023-03-19T17:11:38;6.80;;;4.20;;
54745;SDS011;40640;48.130;11.356;2023-03-19T17:15:43;11.00;;;4.37;;
54745;SDS011;40640;48.130;11.356;2023-03-19T17:19:49;13.80;;;5.80;;
54745;SDS011;40640;48.130;11.356;2023-03-19T17:23:52;9.07;;;4.70;;
54745;SDS011;40640;48.130;11.356;2023-03-19T17:27:56;9.50;;;5.95;;
54745;SDS011;40640;48.130;11.356;2023-03-19T17:31:59;11.30;;;5.72;;
54745;SDS011;40640;48.130;11.356;2023-03-19T17:36:07;8.50;;;4.60;;
54745;SDS011;40640;48.130;11.356;2023-03-19T17:40:15;9.27;;;5.07;;
54745;SDS011;40640;48.130;11.356;2023-03-19T17:44:19;9.38;;;4.75;;
54745;SDS011;40640;48.130;11.356;2023-03-19T17:48:22;10.77;;;5.18;;
54745;SDS011;40640;48.130;11.356;2023-03-19T17:52:28;11.27;;;5.70;;
54745;SDS011;40640;48.130;11.356;2023-03-19T17:56:31;14.52;;;6.95;;
54745;SDS011;40640;48.130;11.356;2023-03-19T18:00:34;15.30;;;7.47;;
54745;SDS011;40640;48.130;11.356;2023-03-19T18:04:37;13.40;;;6.53;;
54745;SDS011;40640;48.130;11.356;2023-03-19T18:08:41;23.52;;;8.80;;
54745;SDS011;40640;48.130;11.356;2023-03-19T18:12:45;12.60;;;5.82;;
54745;SDS011;40640;48.130;11.356;2023-03-19T18:16:49;9.30;;;5.43;;
54745;SDS011;40640;48.130;11.356;2023-03-19T18:20:52;9.60;;;5.97;;
54745;SDS011;40640;48.130;11.356;2023-03-19T18:24:56;12.27;;;6.90;;
54745;SDS011;40640;48.130;11.356;2023-03-19T18:28:59;15.43;;;7.20;;
54745;SDS011;40640;48.130;11.356;2023-03-19T18:33:03;17.20;;;7.35;;
54745;SDS011;40640;48.130;11.356;2023-03-19T18:37:08;12.82;;;6.68;;
54745;SDS011;40640;48.130;11.356;2023-03-19T18:41:18;11.43;;;4.75;;
54745;SDS011;40640;48.130;11.356;2023-03-19T18:45:37;10.00;;;6.10;;
54745;SDS011;40640;48.130;11.356;2023-03-19T18:49:41;52.83;;;27.67;;
54745;SDS011;40640;48.130;11.356;2023-03-19T18:53:44;48.20;;;24.00;;
54745;SDS011;40640;48.130;11.356;2023-03-19T18:57:49;19.10;;;10.65;;
54745;SDS011;40640;48.130;11.356;2023-03-19T19:01:57;36.78;;;18.77;;
54745;SDS011;40640;48.130;11.356;2023-03-19T19:06:01;17.17;;;7.63;;
54745;SDS011;40640;48.130;11.356;2023-03-19T19:10:05;10.18;;;5.10;;
54745;SDS011;40640;48.130;11.356;2023-03-19T19:14:11;12.68;;;4.32;;
54745;SDS011;40640;48.130;11.356;2023-03-19T19:18:20;7.15;;;4.13;;
54745;SDS011;40640;48.130;11.356;2023-03-19T19:22:24;5.10;;;3.88;;
54745;SDS011;40640;48.130;11.356;2023-03-19T19:26:29;9.73;;;4.50;;
54745;SDS011;40640;48.130;11.356;2023-03-19T19:30:34;8.52;;;6.20;;
54745;SDS011;40640;48.130;11.356;2023-03-19T19:34:38;10.23;;;6.43;;
54745;SDS011;40640;48.130;11.356;2023-03-19T19:38:41;8.27;;;5.10;;
54745;SDS011;40640;48.130;11.356;2023-03-19T19:42:44;6.57;;;4.20;;
54745;SDS011;40640;48.130;11.356;2023-03-19T19:46:48;8.55;;;4.30;;
54745;SDS011;40640;48.130;11.356;2023-03-19T19:50:54;9.52;;;4.72;;
54745;SDS011;40640;48.130;11.356;2023-03-19T19:54:57;8.75;;;5.45;;
54745;SDS011;40640;48.130;11.356;2023-03-19T19:59:00;8.65;;;5.63;;
54745;SDS011;40640;48.130;11.356;2023-03-19T20:03:08;13.48;;;5.93;;
54745;SDS011;40640;48.130;11.356;2023-03-19T20:07:20;7.27;;;3.90;;
54745;SDS011;40640;48.130;11.356;2023-03-19T20:11:23;5.93;;;4.80;;
54745;SDS011;40640;48.130;11.356;2023-03-19T20:15:28;6.90;;;4.10;;
54745;SDS011;40640;48.130;11.356;2023-03-19T20:19:35;9.18;;;4.38;;
54745;SDS011;40640;48.130;11.356;2023-03-19T20:23:38;8.48;;;4.63;;
54745;SDS011;40640;48.130;11.356;2023-03-19T20:27:43;9.32;;;4.60;;
54745;SDS011;40640;48.130;11.356;2023-03-19T20:31:47;11.93;;;4.90;;
54745;SDS011;40640;48.130;11.356;2023-03-19T20:35:51;8.02;;;4.65;;
54745;SDS011;40640;48.130;11.356;2023-03-19T20:39:54;6.10;;;4.82;;
54745;SDS011;40640;48.130;11.356;2023-03-19T20:43:57;9.23;;;4.97;;
54745;SDS011;40640;48.130;11.356;2023-03-19T20:48:03;7.72;;;4.63;;
54745;SDS011;40640;48.130;11.356;2023-03-19T20:52:16;8.77;;;3.65;;
54745;SDS011;40640;48.130;11.356;2023-03-19T20:56:19;8.00;;;4.03;;
54745;SDS011;40640;48.130;11.356;2023-03-19T21:00:25;3.90;;;3.50;;
54745;SDS011;40640;48.130;11.356;2023-03-19T21:04:30;5.60;;;3.57;;
54745;SDS011;40640;48.130;11.356;2023-03-19T21:08:34;8.70;;;3.80;;
54745;SDS011;40640;48.130;11.356;2023-03-19T21:12:40;6.65;;;4.07;;
54745;SDS011;40640;48.130;11.356;2023-03-19T21:16:43;4.55;;;3.63;;
54745;SDS011;40640;48.130;11.356;2023-03-19T21:20:46;10.85;;;4.22;;
54745;SDS011;40640;48.130;11.356;2023-03-19T21:24:53;4.32;;;3.13;;
54745;SDS011;40640;48.130;11.356;2023-03-19T21:29:01;6.30;;;3.47;;
54745;SDS011;40640;48.130;11.356;2023-03-19T21:33:08;4.67;;;3.10;;
54745;SDS011;40640;48.130;11.356;2023-03-19T21:37:15;6.90;;;2.88;;
54745;SDS011;40640;48.130;11.356;2023-03-19T21:41:21;6.43;;;3.60;;
54745;SDS011;40640;48.130;11.356;2023-03-19T21:45:26;7.38;;;3.33;;
54745;SDS011;40640;48.130;11.356;2023-03-19T21:49:32;3.92;;;3.20;;
54745;SDS011;40640;48.130;11.356;2023-03-19T21:53:35;4.10;;;3.58;;
54745;SDS011;40640;48.130;11.356;2023-03-19T21:57:42;4.68;;;3.22;;
54745;SDS011;40640;48.130;11.356;2023-03-19T22:01:45;5.22;;;3.72;;
54745;SDS011;40640;48.130;11.356;2023-03-19T22:05:48;4.68;;;3.50;;
54745;SDS011;40640;48.130;11.356;2023-03-19T22:09:52;4.45;;;3.25;;
54745;SDS011;40640;48.130;11.356;2023-03-19T22:13:59;5.85;;;3.38;;
54745;SDS011;40640;48.130;11.356;2023-03-19T22:18:06;7.35;;;3.42;;
54745;SDS011;40640;48.130;11.356;2023-03-19T22:22:14;3.28;;;2.85;;
54745;SDS011;40640;48.130;11.356;2023-03-19T22:26:23;5.50;;;3.45;;
54745;SDS011;40640;48.130;11.356;2023-03-19T22:30:32;8.32;;;3.50;;
54745;SDS011;40640;48.130;11.356;2023-03-19T22:34:36;5.20;;;3.65;;
54745;SDS011;40640;48.130;11.356;2023-03-19T22:38:39;7.15;;;3.78;;
54745;SDS011;40640;48.130;11.356;2023-03-19T22:42:44;10.32;;;4.38;;
54745;SDS011;40640;48.130;11.356;2023-03-19T22:46:50;8.68;;;4.53;;
54745;SDS011;40640;48.130;11.356;2023-03-19T22:50:53;12.48;;;4.25;;
54745;SDS011;40640;48.130;11.356;2023-03-19T22:54:56;8.73;;;5.10;;
54745;SDS011;40640;48.130;11.356;2023-03-19T22:58:59;7.45;;;4.75;;
54745;SDS011;40640;48.130;11.356;2023-03-19T23:03:04;7.25;;;4.70;;
54745;SDS011;40640;48.130;11.356;2023-03-19T23:07:10;6.60;;;4.90;;
54745;SDS011;40640;48.130;11.356;2023-03-19T23:11:14;7.70;;;4.40;;
54745;SDS011;40640;48.130;11.356;2023-03-19T23:15:18;7.72;;;4.50;;
54745;SDS011;40640;48.130;11.356;2023-03-19T23:19:23;8.60;;;4.78;;
54745;SDS011;40640;48.130;11.356;2023-03-19T23:23:29;10.23;;;4.95;;
54745;SDS011;40640;48.130;11.356;2023-03-19T23:27:33;10.57;;;4.82;;
54745;SDS011;40640;48.130;11.356;2023-03-19T23:31:37;13.13;;;7.47;;
54745;SDS011;40640;48.130;11.356;2023-03-19T23:35:41;7.70;;;5.32;;
54745;SDS011;40640;48.130;11.356;2023-03-19T23:39:45;6.65;;;4.55;;
54745;SDS011;40640;48.130;11.356;2023-03-19T23:43:48;8.98;;;4.40;;
54745;SDS011;40640;48.130;11.356;2023-03-19T23:47:51;6.57;;;4.15;;
54745;SDS011;40640;48.130;11.356;2023-03-19T23:51:56;7.15;;;4.22;;
54745;SDS011;40640;48.130;11.356;2023-03-19T23:56:00;6.70;;;4.03;;
